Time;durP1;ratioP1;P1;durP2;ratioP2;P2;SDS_P1;SDS_P2;PMS_P1;PMS_P2;Temp;Humidity;BMP_temperature;BMP_pressure;BME280_temperature;BME280_humidity;BME280_pressure;Samples;Min_cycle;Max_cycle;Signal;HPM_P1;HPM_P2
2023/03/24 00:00:15;;;;;;;;;7.00;5.33;;;;;18.63;100.00;99916.47;5001882;28;47357;-74
2023/03/24 00:02:42;;;;;;;;;6.67;5.00;;;;;18.80;100.00;99944.31;4972140;28;45356;-74
2023/03/24 00:05:13;;;;;;;;;8.00;5.00;;;;;18.80;100.00;99947.06;4972760;28;45531;-74
2023/03/24 00:07:40;;;;;;;;;6.67;4.33;;;;;18.88;100.00;99948.72;4973967;28;45618;-75
2023/03/24 00:10:12;;;;;;;;;6.67;4.67;;;;;18.85;100.00;99955.50;4965426;28;45414;-74
2023/03/24 00:12:38;;;;;;;;;5.67;4.33;;;;;18.88;100.00;99968.00;4968395;28;45324;-74
2023/03/24 00:15:07;;;;;;;;;5.33;5.33;;;;;18.79;100.00;99959.16;4975538;28;45518;-75
2023/03/24 00:17:34;;;;;;;;;6.67;5.33;;;;;18.49;100.00;99964.34;5004892;28;45517;-74
2023/03/24 00:20:13;;;;;;;;;6.67;5.33;;;;;18.40;100.00;99932.69;4973471;28;46366;-74
2023/03/24 00:22:48;;;;;;;;;7.00;7.00;;;;;18.43;100.00;99965.22;4967712;28;45247;-74
2023/03/24 00:25:15;;;;;;;;;5.33;5.33;;;;;18.78;100.00;99971.22;4966741;28;45494;-74
2023/03/24 00:27:43;;;;;;;;;3.00;3.00;;;;;18.71;100.00;99955.81;4955858;28;48229;-74
2023/03/24 00:30:10;;;;;;;;;4.33;4.33;;;;;18.59;100.00;99962.03;4972628;28;45424;-74
2023/03/24 00:32:37;;;;;;;;;3.67;3.67;;;;;18.33;100.00;99928.28;4999091;28;45297;-75
2023/03/24 00:35:08;;;;;;;;;5.33;5.33;;;;;18.75;100.00;99959.81;4972331;28;45470;-75
2023/03/24 00:37:36;;;;;;;;;5.67;5.67;;;;;18.77;100.00;99952.19;4968960;28;45703;-75
2023/03/24 00:40:10;;;;;;;;;6.33;5.00;;;;;18.81;100.00;99953.44;4967777;28;45506;-76
2023/03/24 00:42:36;;;;;;;;;6.00;6.00;;;;;18.73;100.00;99982.06;4972591;28;45332;-75
2023/03/24 00:45:04;;;;;;;;;7.67;5.67;;;;;18.73;100.00;99986.72;4971753;28;45298;-75
2023/03/24 00:47:35;;;;;;;;;3.00;3.00;;;;;18.74;100.00;99994.75;4972334;28;47007;-74
2023/03/24 00:50:05;;;;;;;;;3.33;3.33;;;;;18.71;100.00;99994.31;4971957;28;45316;-75
2023/03/24 00:52:33;;;;;;;;;4.00;3.67;;;;;18.56;100.00;99970.69;4975964;28;45937;-75
2023/03/24 00:55:00;;;;;;;;;3.00;3.00;;;;;18.77;100.00;100021.00;4972371;28;45536;-74
2023/03/24 00:57:28;;;;;;;;;4.33;4.33;;;;;18.58;100.00;100006.25;4975727;28;47027;-75
2023/03/24 00:59:55;;;;;;;;;5.00;3.33;;;;;18.79;100.00;100035.34;4972299;28;45348;-75
2023/03/24 01:02:26;;;;;;;;;4.33;4.33;;;;;18.51;100.00;100008.16;4969662;28;45364;-75
2023/03/24 01:04:53;;;;;;;;;4.00;4.00;;;;;18.56;100.00;99986.34;4973061;28;45145;-75
2023/03/24 01:07:23;;;;;;;;;3.00;3.00;;;;;18.35;100.00;99972.88;4985261;28;47248;-74
2023/03/24 01:09:56;;;;;;;;;3.67;3.33;;;;;18.72;100.00;100009.78;4971188;28;46124;-74
2023/03/24 01:12:27;;;;;;;;;2.00;2.00;;;;;18.77;100.00;100004.50;4972208;28;45518;-74
2023/03/24 01:14:54;;;;;;;;;5.33;4.00;;;;;18.85;100.00;100006.97;4974653;28;45297;-75
2023/03/24 01:17:24;;;;;;;;;3.00;3.00;;;;;18.77;100.00;99983.31;4974484;28;46693;-76
2023/03/24 01:19:52;;;;;;;;;6.00;3.00;;;;;18.77;100.00;99979.72;4974216;28;45296;-73
2023/03/24 01:22:19;;;;;;;;;3.67;3.33;;;;;18.73;100.00;99989.47;4963422;28;45427;-74
2023/03/24 01:24:46;;;;;;;;;1.33;1.33;;;;;18.94;100.00;100017.50;4973675;28;45276;-75
2023/03/24 01:27:12;;;;;;;;;3.00;3.00;;;;;18.82;100.00;99990.91;4965651;28;45414;-75
2023/03/24 01:29:38;;;;;;;;;3.00;3.00;;;;;18.88;100.00;99993.59;4971056;28;45463;-75
2023/03/24 01:32:03;;;;;;;;;5.67;3.00;;;;;18.85;100.00;100002.28;4998189;28;45496;-75
2023/03/24 01:34:29;;;;;;;;;4.00;3.00;;;;;18.84;100.00;100008.03;4973795;28;45523;-76
2023/03/24 01:36:54;;;;;;;;;3.00;3.00;;;;;18.87;100.00;100022.19;4967909;28;46441;-74
2023/03/24 01:39:19;;;;;;;;;2.00;2.00;;;;;18.87;100.00;99996.56;4974616;28;45257;-75
2023/03/24 01:41:45;;;;;;;;;1.33;1.33;;;;;18.85;100.00;99994.03;4969468;28;45654;-73
2023/03/24 01:44:35;;;;;;;;;4.00;4.00;;;;;18.70;100.00;100018.28;4978244;28;45617;-74
2023/03/24 01:47:05;;;;;;;;;4.00;4.00;;;;;18.80;100.00;100004.03;4962242;28;46834;-75
2023/03/24 01:49:36;;;;;;;;;4.67;2.00;;;;;18.70;100.00;99987.16;4975696;28;45536;-75
2023/03/24 01:52:06;;;;;;;;;3.00;3.00;;;;;18.90;100.00;100015.41;5001856;28;45442;-74
2023/03/24 01:54:43;;;;;;;;;3.00;3.00;;;;;18.93;100.00;100014.97;4974440;28;45492;-75
2023/03/24 01:57:16;;;;;;;;;3.33;3.33;;;;;18.92;100.00;100038.06;4978854;28;46874;-74
2023/03/24 01:59:48;;;;;;;;;2.33;1.00;;;;;18.92;100.00;100025.13;4975673;28;45946;-75
2023/03/24 02:02:15;;;;;;;;;2.00;2.00;;;;;18.56;100.00;100013.88;4968618;28;45374;-75
2023/03/24 02:04:44;;;;;;;;;3.67;3.00;;;;;18.53;100.00;99987.63;5006055;28;45453;-75
2023/03/24 02:07:21;;;;;;;;;2.67;2.00;;;;;18.70;100.00;100003.69;4969492;28;46316;-75
2023/03/24 02:09:47;;;;;;;;;2.00;2.00;;;;;18.69;100.00;99982.72;4971735;28;45377;-75
2023/03/24 02:12:13;;;;;;;;;1.00;1.00;;;;;18.58;100.00;99998.00;4978096;28;45265;-75
2023/03/24 02:14:38;;;;;;;;;2.00;2.00;;;;;18.56;100.00;99991.84;4976805;28;45343;-75
2023/03/24 02:17:17;;;;;;;;;1.00;1.00;;;;;18.40;100.00;99979.44;4977459;28;45615;-75
2023/03/24 02:20:06;;;;;;;;;3.00;1.00;;;;;18.51;100.00;99984.25;4978558;28;45350;-75
2023/03/24 02:23:16;;;;;;;;;1.33;1.33;;;;;18.40;100.00;99998.69;4982760;28;45440;-75
2023/03/24 02:26:03;;;;;;;;;1.00;1.00;;;;;18.56;100.00;100019.38;4966915;28;45405;-75
2023/03/24 02:28:43;;;;;;;;;2.00;1.00;;;;;18.23;100.00;100006.56;4973839;28;45423;-75
2023/03/24 02:31:33;;;;;;;;;3.00;3.00;;;;;18.47;100.00;100018.75;4969056;28;45364;-75
2023/03/24 02:34:30;;;;;;;;;1.67;1.67;;;;;18.57;100.00;100030.16;4981500;28;45374;-75
2023/03/24 02:37:08;;;;;;;;;1.00;1.00;;;;;18.65;100.00;100034.56;4977317;28;45487;-75
2023/03/24 02:40:12;;;;;;;;;3.00;2.00;;;;;18.49;100.00;100038.63;4964165;28;48072;-75
2023/03/24 02:43:01;;;;;;;;;1.00;1.00;;;;;18.48;100.00;100033.38;4967217;28;45439;-75
2023/03/24 02:45:39;;;;;;;;;0.00;0.00;;;;;18.42;100.00;100051.56;4970502;28;45242;-75
2023/03/24 02:48:24;;;;;;;;;2.00;1.00;;;;;18.45;100.00;100051.13;4979336;28;45411;-75
2023/03/24 02:50:54;;;;;;;;;1.67;1.33;;;;;18.10;100.00;100030.50;4971532;28;45522;-75
2023/03/24 02:53:24;;;;;;;;;2.00;2.00;;;;;18.38;100.00;100046.72;4978063;28;45423;-75
2023/03/24 02:56:08;;;;;;;;;1.67;1.67;;;;;18.44;100.00;100054.09;4964139;28;45366;-75
2023/03/24 02:58:45;;;;;;;;;1.00;1.00;;;;;17.85;100.00;100036.66;4975943;28;45194;-75
2023/03/24 03:01:52;;;;;;;;;1.00;1.00;;;;;18.30;100.00;100039.53;4968553;28;45736;-75
2023/03/24 03:04:24;;;;;;;;;1.00;1.00;;;;;18.28;100.00;100025.16;5003559;28;45599;-75
2023/03/24 03:06:55;;;;;;;;;0.67;0.67;;;;;18.34;100.00;100026.22;4958825;28;45240;-75
2023/03/24 03:09:22;;;;;;;;;3.00;2.00;;;;;18.11;100.00;100060.53;4978585;28;45603;-75
2023/03/24 03:11:52;;;;;;;;;3.67;2.00;;;;;18.13;100.00;100019.91;4971563;28;45399;-75
2023/03/24 03:14:24;;;;;;;;;0.00;0.00;;;;;18.00;100.00;100072.16;4979182;28;45343;-73
2023/03/24 03:17:06;;;;;;;;;1.00;1.00;;;;;17.79;100.00;100061.41;5003251;28;45169;-73
2023/03/24 03:19:38;;;;;;;;;0.33;0.33;;;;;17.76;100.00;100079.13;4976932;28;45373;-74
2023/03/24 03:22:11;;;;;;;;;2.33;1.67;;;;;17.57;100.00;100068.13;4997626;28;47167;-74
2023/03/24 03:24:40;;;;;;;;;4.00;2.00;;;;;17.31;100.00;100074.44;4991025;28;45449;-74
2023/03/24 03:27:17;;;;;;;;;2.33;2.33;;;;;17.08;100.00;100064.66;4964373;28;45299;-74
2023/03/24 03:29:49;;;;;;;;;3.67;2.00;;;;;17.36;100.00;100086.47;5007357;28;45518;-74
2023/03/24 03:32:27;;;;;;;;;1.00;1.00;;;;;17.44;100.00;100089.03;4968205;28;46402;-74
2023/03/24 03:35:13;;;;;;;;;0.00;0.00;;;;;17.34;100.00;100074.00;4974881;28;45234;-74
2023/03/24 03:37:50;;;;;;;;;2.33;2.00;;;;;17.48;100.00;100086.69;4998883;28;46756;-74
2023/03/24 03:40:22;;;;;;;;;2.00;2.00;;;;;17.44;100.00;100080.78;4970599;28;45655;-75
2023/03/24 03:42:47;;;;;;;;;1.67;0.00;;;;;17.43;100.00;100097.47;4976549;28;46764;-75
2023/03/24 03:45:13;;;;;;;;;1.00;1.00;;;;;17.60;100.00;100115.25;4966138;28;45305;-75
2023/03/24 03:47:39;;;;;;;;;0.33;0.33;;;;;17.15;100.00;100099.53;4975998;28;45241;-74
2023/03/24 03:50:07;;;;;;;;;1.00;1.00;;;;;17.17;100.00;100081.78;4972007;28;45489;-74
2023/03/24 03:52:34;;;;;;;;;1.00;1.00;;;;;17.38;100.00;100092.63;4977029;28;47404;-75
2023/03/24 03:55:01;;;;;;;;;1.00;1.00;;;;;17.07;100.00;100070.38;4972146;28;45373;-75
2023/03/24 03:57:26;;;;;;;;;1.33;1.33;;;;;17.08;100.00;100114.06;4978172;28;45436;-75
2023/03/24 03:59:52;;;;;;;;;0.00;0.00;;;;;17.23;100.00;100099.34;4972398;28;45336;-74
2023/03/24 04:02:39;;;;;;;;;1.33;0.33;;;;;17.18;100.00;100097.19;5001168;28;46989;-74
2023/03/24 04:05:41;;;;;;;;;1.00;1.00;;;;;17.05;100.00;100103.50;4969596;28;45435;-75
2023/03/24 04:08:17;;;;;;;;;0.33;0.33;;;;;17.15;100.00;100105.00;4963732;28;45337;-75
2023/03/24 04:11:01;;;;;;;;;1.00;1.00;;;;;17.40;100.00;100117.09;4967896;28;45232;-75
2023/03/24 04:13:39;;;;;;;;;0.33;0.00;;;;;17.28;100.00;100107.78;4975208;28;45376;-75
2023/03/24 04:16:29;;;;;;;;;0.67;0.67;;;;;16.94;100.00;100095.88;4971024;28;45418;-75
2023/03/24 04:18:58;;;;;;;;;2.67;2.00;;;;;17.11;100.00;100112.78;4965250;28;45478;-75
2023/03/24 04:21:52;;;;;;;;;2.00;2.00;;;;;17.19;100.00;100103.53;4964752;28;45252;-75
2023/03/24 04:24:31;;;;;;;;;1.67;1.67;;;;;17.14;100.00;100115.16;4988428;28;47112;-75
2023/03/24 04:27:08;;;;;;;;;1.00;1.00;;;;;17.36;100.00;100143.28;4965287;28;45551;-75
2023/03/24 04:29:33;;;;;;;;;1.00;1.00;;;;;17.44;100.00;100140.38;4974458;28;45487;-75
2023/03/24 04:32:24;;;;;;;;;2.00;2.00;;;;;17.21;100.00;100151.69;4982861;28;45399;-75
2023/03/24 04:35:00;;;;;;;;;1.00;1.00;;;;;17.32;100.00;100136.50;5004374;28;47349;-74
2023/03/24 04:37:31;;;;;;;;;4.00;4.00;;;;;17.38;100.00;100152.19;4967808;28;45345;-75
2023/03/24 04:40:00;;;;;;;;;1.00;1.00;;;;;17.17;100.00;100127.63;4972499;28;45576;-75
2023/03/24 04:42:33;;;;;;;;;2.67;2.00;;;;;16.85;100.00;100104.47;4961275;28;45544;-75
2023/03/24 04:45:00;;;;;;;;;2.33;2.33;;;;;17.05;100.00;100125.44;4967853;28;47139;-75
2023/03/24 04:47:30;;;;;;;;;4.33;2.00;;;;;17.38;100.00;100171.41;4972882;28;45436;-75
2023/03/24 04:50:01;;;;;;;;;2.67;2.00;;;;;17.21;100.00;100139.88;4971924;28;45213;-74
2023/03/24 04:52:26;;;;;;;;;5.33;1.00;;;;;17.09;100.00;100115.75;4973812;28;45360;-75
2023/03/24 04:54:52;;;;;;;;;1.67;0.33;;;;;17.13;100.00;100184.81;4969767;28;47157;-74
2023/03/24 04:57:17;;;;;;;;;3.33;2.00;;;;;17.20;100.00;100173.84;4976170;28;45356;-75
2023/03/24 04:59:43;;;;;;;;;2.00;2.00;;;;;16.83;100.00;100132.09;4973874;28;45527;-76
2023/03/24 05:02:08;;;;;;;;;1.00;1.00;;;;;16.93;100.00;100148.22;5000154;28;45316;-75
2023/03/24 05:04:36;;;;;;;;;4.67;1.00;;;;;16.70;100.00;100132.06;4973655;28;47200;-75
2023/03/24 05:07:03;;;;;;;;;0.33;0.33;;;;;16.94;100.00;100166.38;4968264;28;45300;-75
2023/03/24 05:09:30;;;;;;;;;4.00;3.00;;;;;16.52;100.00;100123.47;4960287;28;45426;-76
2023/03/24 05:11:56;;;;;;;;;2.00;2.00;;;;;16.77;100.00;100160.38;4971981;28;45487;-75
2023/03/24 05:14:22;;;;;;;;;2.00;2.00;;;;;16.72;100.00;100180.19;4976104;28;45701;-75
2023/03/24 05:16:47;;;;;;;;;1.00;1.00;;;;;16.73;100.00;100195.56;4998874;28;45410;-75
2023/03/24 05:19:13;;;;;;;;;2.00;2.00;;;;;16.47;100.00;100176.19;4975645;28;45430;-75
2023/03/24 05:21:39;;;;;;;;;1.00;1.00;;;;;16.63;100.00;100191.50;4954979;28;45329;-76
2023/03/24 05:24:05;;;;;;;;;4.00;1.00;;;;;16.67;100.00;100181.81;4968154;28;45421;-75
2023/03/24 05:26:31;;;;;;;;;1.00;1.00;;;;;16.67;100.00;100173.59;4956351;28;45357;-75
2023/03/24 05:28:56;;;;;;;;;2.00;2.00;;;;;16.75;100.00;100184.41;4969786;28;45415;-75
2023/03/24 05:31:21;;;;;;;;;1.33;1.00;;;;;16.62;100.00;100179.69;4960260;28;45380;-75
2023/03/24 05:33:47;;;;;;;;;1.00;1.00;;;;;16.82;100.00;100198.16;4966186;28;47316;-76
2023/03/24 05:36:13;;;;;;;;;6.00;5.00;;;;;16.50;100.00;100169.47;4965364;28;45464;-75
2023/03/24 05:38:38;;;;;;;;;4.00;1.00;;;;;16.65;100.00;100205.88;4971635;28;45547;-74
2023/03/24 05:41:04;;;;;;;;;1.00;1.00;;;;;16.48;100.00;100185.25;4967142;28;45524;-74
2023/03/24 05:43:30;;;;;;;;;2.00;2.00;;;;;16.57;100.00;100195.03;4972930;28;47028;-74
2023/03/24 05:45:56;;;;;;;;;2.00;1.67;;;;;16.43;100.00;100179.53;4968781;28;45249;-76
2023/03/24 05:48:22;;;;;;;;;2.00;0.00;;;;;16.67;100.00;100223.81;4976144;28;45474;-75
2023/03/24 05:50:47;;;;;;;;;4.00;1.67;;;;;16.42;100.00;100177.84;4973678;28;45795;-75
2023/03/24 05:53:13;;;;;;;;;2.33;2.00;;;;;16.50;100.00;100211.44;4979057;28;45422;-75
2023/03/24 05:55:39;;;;;;;;;2.00;1.00;;;;;16.27;100.00;100228.13;4973664;28;47387;-75
2023/03/24 05:58:04;;;;;;;;;3.67;2.00;;;;;16.34;100.00;100215.31;4979771;28;45338;-75
2023/03/24 06:00:32;;;;;;;;;1.00;1.00;;;;;16.24;100.00;100209.31;4962337;28;45536;-75
2023/03/24 06:02:58;;;;;;;;;3.00;1.00;;;;;16.34;100.00;100229.03;4985295;28;46435;-75
2023/03/24 06:05:24;;;;;;;;;2.00;1.00;;;;;16.20;100.00;100196.22;4978981;28;45404;-75
2023/03/24 06:07:49;;;;;;;;;2.67;1.00;;;;;15.99;100.00;100229.13;4985218;28;45257;-74
2023/03/24 06:10:17;;;;;;;;;1.00;1.00;;;;;16.27;100.00;100252.78;4975870;28;45182;-75
2023/03/24 06:12:43;;;;;;;;;0.00;0.00;;;;;16.30;100.00;100257.88;4975668;28;45466;-76
2023/03/24 06:15:09;;;;;;;;;2.67;2.67;;;;;16.12;100.00;100252.03;4976284;28;45447;-75
2023/03/24 06:17:36;;;;;;;;;5.00;3.33;;;;;16.15;100.00;100259.84;4965474;28;45483;-75
2023/03/24 06:20:02;;;;;;;;;2.33;2.33;;;;;16.06;100.00;100266.50;4975577;28;45282;-75
2023/03/24 06:22:31;;;;;;;;;3.00;2.00;;;;;16.23;100.00;100284.38;4965257;28;45483;-75
2023/03/24 06:24:57;;;;;;;;;5.00;2.67;;;;;16.40;100.00;100295.91;4977575;28;45356;-75
2023/03/24 06:27:34;;;;;;;;;1.00;1.00;;;;;16.55;100.00;100295.84;4968081;28;45417;-75
2023/03/24 06:30:00;;;;;;;;;1.33;1.00;;;;;16.31;100.00;100291.63;4978668;28;45395;-74
2023/03/24 06:32:25;;;;;;;;;3.00;1.67;;;;;16.36;100.00;100308.34;4999945;28;45571;-76
2023/03/24 06:34:51;;;;;;;;;5.00;2.00;;;;;16.12;100.00;100282.16;4974481;28;45413;-75
2023/03/24 06:37:18;;;;;;;;;6.00;5.67;;;;;16.06;100.00;100320.47;4968543;28;45234;-75
2023/03/24 06:39:44;;;;;;;;;1.00;1.00;;;;;16.44;100.00;100313.66;4975864;28;45612;-74
2023/03/24 06:42:10;;;;;;;;;5.67;5.67;;;;;16.59;100.00;100302.63;4971212;28;46854;-75
2023/03/24 06:44:35;;;;;;;;;3.00;2.33;;;;;16.81;100.00;100323.50;4975947;28;45225;-76
2023/03/24 06:47:00;;;;;;;;;3.33;2.33;;;;;16.69;100.00;100322.38;4986070;28;45482;-76
2023/03/24 06:49:26;;;;;;;;;1.00;1.00;;;;;16.62;100.00;100305.84;4977577;28;45446;-75
2023/03/24 06:51:51;;;;;;;;;3.67;2.00;;;;;16.81;100.00;100337.22;4970986;28;45630;-74
2023/03/24 06:54:17;;;;;;;;;4.00;2.33;;;;;16.60;100.00;100313.44;4977957;28;45387;-75
2023/03/24 06:56:43;;;;;;;;;6.00;1.67;;;;;16.66;100.00;100311.78;4995320;28;45440;-75
2023/03/24 06:59:09;;;;;;;;;4.00;2.33;;;;;16.23;100.00;100306.31;4979494;28;45246;-74
2023/03/24 07:01:35;;;;;;;;;4.33;4.33;;;;;16.56;100.00;100314.84;4964120;28;46132;-74
2023/03/24 07:04:01;;;;;;;;;2.00;2.00;;;;;16.63;100.00;100303.97;4980145;28;45627;-74
2023/03/24 07:06:28;;;;;;;;;2.00;2.00;;;;;16.87;100.00;100325.47;4966024;28;45326;-74
2023/03/24 07:08:54;;;;;;;;;2.00;2.00;;;;;16.90;100.00;100330.56;4979397;28;45449;-74
2023/03/24 07:11:19;;;;;;;;;5.33;2.67;;;;;16.79;100.00;100320.13;4968284;28;45428;-74
2023/03/24 07:13:45;;;;;;;;;1.67;1.00;;;;;17.33;100.00;100347.75;4979790;28;45202;-75
2023/03/24 07:16:10;;;;;;;;;1.00;1.00;;;;;17.46;100.00;100311.25;4966552;28;45353;-75
2023/03/24 07:18:35;;;;;;;;;2.00;2.00;;;;;17.19;100.00;100329.50;4970593;28;45535;-76
2023/03/24 07:21:01;;;;;;;;;3.00;3.00;;;;;17.22;100.00;100350.22;4970078;28;46278;-76
2023/03/24 07:23:26;;;;;;;;;2.00;1.67;;;;;17.33;100.00;100339.50;4972151;28;45317;-74
2023/03/24 07:25:52;;;;;;;;;4.67;2.00;;;;;17.40;100.00;100362.34;4967083;28;45424;-75
2023/03/24 07:28:18;;;;;;;;;3.67;2.00;;;;;17.79;100.00;100369.16;4956342;28;45389;-75
2023/03/24 07:30:43;;;;;;;;;1.67;1.67;;;;;17.78;100.00;100362.81;4977787;28;45522;-76
2023/03/24 07:33:11;;;;;;;;;2.00;2.00;;;;;18.03;100.00;100357.63;4972828;28;45438;-76
2023/03/24 07:35:37;;;;;;;;;2.00;2.00;;;;;18.18;100.00;100373.97;4969137;28;45399;-76
2023/03/24 07:38:02;;;;;;;;;1.00;1.00;;;;;18.12;100.00;100359.13;4991531;28;45505;-75
2023/03/24 07:40:29;;;;;;;;;4.67;2.00;;;;;17.45;100.00;100307.69;4967486;28;46861;-76
2023/03/24 07:42:54;;;;;;;;;4.00;2.00;;;;;17.88;100.00;100363.28;4995311;28;45430;-76
2023/03/24 07:45:20;;;;;;;;;3.33;3.00;;;;;17.88;100.00;100373.44;5001152;28;45354;-75
2023/03/24 07:47:46;;;;;;;;;6.00;3.00;;;;;17.35;100.00;100328.31;4993185;28;45631;-75
2023/03/24 07:50:13;;;;;;;;;2.00;2.00;;;;;17.71;100.00;100358.34;4969127;28;47007;-75
2023/03/24 07:52:45;;;;;;;;;4.00;1.00;;;;;17.42;100.00;100346.53;4970004;28;45477;-75
2023/03/24 07:55:11;;;;;;;;;2.00;2.00;;;;;17.66;100.00;100364.44;4970278;28;45352;-74
2023/03/24 07:57:41;;;;;;;;;4.67;2.00;;;;;17.67;100.00;100377.16;4970216;28;45441;-75
2023/03/24 08:00:16;;;;;;;;;3.67;3.33;;;;;17.53;100.00;100348.69;4968100;28;46801;-77
2023/03/24 08:02:48;;;;;;;;;1.00;1.00;;;;;18.07;100.00;100366.31;4966370;28;45270;-75
2023/03/24 08:05:14;;;;;;;;;3.00;2.00;;;;;18.18;100.00;100372.06;4955918;28;45376;-75
2023/03/24 08:07:41;;;;;;;;;1.00;1.00;;;;;18.44;100.00;100357.50;4968068;28;45399;-74
2023/03/24 08:10:09;;;;;;;;;4.67;3.00;;;;;18.58;100.00;100361.16;4960277;28;47194;-73
2023/03/24 08:12:34;;;;;;;;;3.00;2.00;;;;;19.16;100.00;100378.75;4998013;28;46264;-76
2023/03/24 08:15:00;;;;;;;;;3.00;1.00;;;;;18.97;100.00;100352.09;4966191;28;45459;-76
2023/03/24 08:17:25;;;;;;;;;5.67;0.67;;;;;18.79;100.00;100362.88;4970265;28;45340;-76
2023/03/24 08:19:51;;;;;;;;;4.67;3.00;;;;;19.03;100.00;100382.38;4962497;28;46804;-76
2023/03/24 08:22:16;;;;;;;;;3.00;1.67;;;;;19.62;100.00;100399.91;4967636;28;45547;-76
2023/03/24 08:24:41;;;;;;;;;3.33;3.00;;;;;19.19;100.00;100348.03;4965555;28;45337;-77
2023/03/24 08:27:07;;;;;;;;;4.00;1.00;;;;;19.41;100.00;100354.16;4967606;28;45388;-76
2023/03/24 08:29:36;;;;;;;;;3.33;3.00;;;;;19.66;100.00;100395.66;4967448;28;45554;-76
2023/03/24 08:32:02;;;;;;;;;2.00;2.00;;;;;19.64;100.00;100406.91;4968886;28;45290;-76
2023/03/24 08:34:27;;;;;;;;;2.00;2.00;;;;;19.41;100.00;100371.53;4962049;28;45527;-75
2023/03/24 08:36:52;;;;;;;;;2.33;2.33;;;;;19.11;100.00;100392.31;4985385;28;45206;-75
2023/03/24 08:39:19;;;;;;;;;5.33;5.00;;;;;19.20;100.00;100380.03;4966124;28;47449;-75
2023/03/24 08:41:45;;;;;;;;;3.00;3.00;;;;;19.58;100.00;100407.75;4995420;28;45328;-74
2023/03/24 08:44:10;;;;;;;;;4.67;2.67;;;;;19.99;100.00;100415.69;4966004;28;45431;-77
2023/03/24 08:46:36;;;;;;;;;3.67;2.67;;;;;19.58;100.00;100360.09;4973933;28;45420;-77
2023/03/24 08:49:01;;;;;;;;;2.00;2.00;;;;;20.29;100.00;100406.88;4968275;28;46427;-76
2023/03/24 08:51:27;;;;;;;;;4.00;3.00;;;;;20.52;100.00;100415.50;4942973;28;45402;-77
2023/03/24 08:53:52;;;;;;;;;2.33;2.33;;;;;20.39;99.59;100423.81;4972455;28;45317;-76
2023/03/24 08:56:18;;;;;;;;;1.67;1.00;;;;;20.09;100.00;100410.56;4967082;28;45356;-76
2023/03/24 08:58:47;;;;;;;;;1.00;1.00;;;;;19.87;99.47;100400.88;4990692;28;47389;-74
2023/03/24 09:01:13;;;;;;;;;2.67;2.33;;;;;20.12;98.02;100434.94;4966829;28;45787;-72
2023/03/24 09:03:38;;;;;;;;;2.00;2.00;;;;;19.83;96.39;100406.00;5007658;28;45331;-76
2023/03/24 09:06:04;;;;;;;;;3.00;3.00;;;;;20.07;97.71;100426.50;4971004;28;45498;-76
2023/03/24 09:08:30;;;;;;;;;2.00;2.00;;;;;20.43;97.40;100447.16;4991701;28;47197;-76
2023/03/24 09:10:55;;;;;;;;;4.33;2.00;;;;;20.22;96.16;100417.94;4972717;28;45273;-77
2023/03/24 09:13:21;;;;;;;;;3.33;2.00;;;;;19.60;96.13;100424.06;4991350;28;45333;-76
2023/03/24 09:15:52;;;;;;;;;2.00;2.00;;;;;19.77;100.00;100426.16;4970397;28;45264;-75
2023/03/24 09:18:18;;;;;;;;;3.67;2.00;;;;;19.91;98.83;100429.72;4964992;28;45423;-75
2023/03/24 09:20:45;;;;;;;;;3.00;1.00;;;;;19.76;96.04;100451.19;4969995;28;45463;-77
2023/03/24 09:23:11;;;;;;;;;4.00;2.33;;;;;19.61;96.99;100458.84;4968794;28;45319;-76
2023/03/24 09:25:36;;;;;;;;;5.00;3.00;;;;;19.87;96.96;100431.22;4969911;28;45495;-76
2023/03/24 09:28:02;;;;;;;;;2.67;2.67;;;;;20.45;95.54;100442.28;4969786;28;46269;-76
2023/03/24 09:30:27;;;;;;;;;2.67;2.00;;;;;20.69;90.43;100443.41;4968265;28;45459;-75
2023/03/24 09:32:52;;;;;;;;;3.00;1.33;;;;;20.79;89.67;100449.28;4954938;28;45366;-76
2023/03/24 09:35:18;;;;;;;;;0.00;0.00;;;;;20.83;87.79;100450.53;4978070;28;45372;-75
2023/03/24 09:37:44;;;;;;;;;5.67;2.00;;;;;20.14;83.55;100443.00;5004306;28;47061;-75
2023/03/24 09:40:22;;;;;;;;;2.00;2.00;;;;;19.73;90.54;100449.69;5002469;28;45842;-76
2023/03/24 09:43:05;;;;;;;;;3.00;3.00;;;;;19.45;87.76;100433.38;4975391;28;45238;-76
2023/03/24 09:45:35;;;;;;;;;2.33;1.67;;;;;19.91;84.34;100438.00;4969124;28;45459;-76
2023/03/24 09:48:30;;;;;;;;;5.33;2.00;;;;;20.16;83.86;100400.34;4976396;28;45955;-76
2023/03/24 09:51:02;;;;;;;;;3.67;3.67;;;;;19.89;83.53;100439.28;4968796;28;45426;-76
2023/03/24 09:53:58;;;;;;;;;3.67;3.67;;;;;19.38;88.28;100443.56;4972893;28;45268;-76
2023/03/24 09:56:25;;;;;;;;;3.33;1.33;;;;;19.70;84.57;100418.97;4967912;28;45559;-74
2023/03/24 09:59:00;;;;;;;;;3.00;2.00;;;;;20.45;84.23;100465.22;4972426;28;45411;-76
2023/03/24 10:01:26;;;;;;;;;3.00;1.33;;;;;20.20;82.51;100462.28;4970044;28;45404;-74
2023/03/24 10:03:56;;;;;;;;;2.00;1.00;;;;;19.31;88.84;100452.91;4978105;28;45549;-74
2023/03/24 10:06:27;;;;;;;;;3.00;0.33;;;;;19.30;90.91;100457.56;4955821;28;45661;-74
2023/03/24 10:09:26;;;;;;;;;2.33;2.33;;;;;19.89;89.59;100453.06;4976165;28;46451;-75
2023/03/24 10:12:10;;;;;;;;;3.33;1.00;;;;;19.63;87.06;100468.59;5001090;28;45290;-75
2023/03/24 10:14:44;;;;;;;;;2.00;2.00;;;;;20.34;86.77;100454.84;4971972;28;45363;-76
2023/03/24 10:17:27;;;;;;;;;5.67;2.33;;;;;20.98;81.39;100462.94;4963415;28;45317;-77
2023/03/24 10:20:26;;;;;;;;;4.33;4.33;;;;;20.72;79.98;100476.09;4967963;28;45856;-77
2023/03/24 10:22:57;;;;;;;;;6.00;4.33;;;;;21.26;79.05;100464.47;4961407;28;45325;-75
2023/03/24 10:25:34;;;;;;;;;2.00;2.00;;;;;21.43;76.70;100460.09;4969788;28;45510;-75
2023/03/24 10:28:13;;;;;;;;;2.67;2.67;;;;;21.54;72.94;100461.28;4960231;28;45664;-75
2023/03/24 10:30:42;;;;;;;;;3.00;1.00;;;;;21.28;70.29;100446.59;4965448;28;46633;-76
2023/03/24 10:33:12;;;;;;;;;2.00;2.00;;;;;21.39;71.50;100469.91;4970943;28;45480;-75
2023/03/24 10:35:49;;;;;;;;;4.00;1.00;;;;;20.77;71.11;100432.09;4966934;28;45251;-75
2023/03/24 10:38:17;;;;;;;;;2.67;2.33;;;;;20.78;71.71;100450.34;4969263;28;45333;-75
2023/03/24 10:40:44;;;;;;;;;2.00;1.67;;;;;20.93;71.37;100460.03;4969071;28;45790;-75
2023/03/24 10:43:10;;;;;;;;;5.00;2.67;;;;;20.79;72.27;100425.28;4976734;28;45380;-76
2023/03/24 10:45:40;;;;;;;;;2.00;2.00;;;;;20.59;74.07;100483.38;4970441;28;45454;-75
2023/03/24 10:48:08;;;;;;;;;1.00;1.00;;;;;20.94;74.31;100450.69;5011527;28;45676;-76
2023/03/24 10:50:34;;;;;;;;;3.00;2.00;;;;;21.47;74.16;100455.81;4970769;28;46408;-75
2023/03/24 10:53:06;;;;;;;;;4.00;2.67;;;;;21.86;72.45;100451.78;4980407;28;45469;-76
2023/03/24 10:55:42;;;;;;;;;4.67;2.00;;;;;21.66;70.49;100459.44;4970861;28;45582;-75
2023/03/24 10:58:20;;;;;;;;;1.67;1.67;;;;;21.98;70.28;100461.06;4973923;28;45412;-75
2023/03/24 11:00:46;;;;;;;;;3.00;3.00;;;;;21.73;70.03;100438.94;4959298;28;47039;-76
2023/03/24 11:03:16;;;;;;;;;2.00;1.00;;;;;22.04;68.24;100467.59;4971543;28;45853;-76
2023/03/24 11:05:43;;;;;;;;;4.00;2.67;;;;;22.27;70.29;100437.31;4960460;28;45641;-76
2023/03/24 11:08:31;;;;;;;;;5.67;2.00;;;;;22.59;67.79;100459.22;4972565;28;45507;-77
2023/03/24 11:10:57;;;;;;;;;7.33;3.33;;;;;22.41;66.41;100462.88;4968832;28;46309;-76
2023/03/24 11:13:23;;;;;;;;;2.00;2.00;;;;;22.41;67.82;100472.03;4982964;28;45317;-78
2023/03/24 11:16:03;;;;;;;;;3.00;3.00;;;;;22.86;65.88;100449.50;4971355;28;45703;-76
2023/03/24 11:18:28;;;;;;;;;3.33;1.67;;;;;22.34;65.95;100445.53;4971576;28;45305;-76
2023/03/24 11:21:05;;;;;;;;;4.00;4.00;;;;;22.53;65.64;100455.47;4965082;28;47118;-77
2023/03/24 11:23:33;;;;;;;;;2.33;1.67;;;;;22.96;65.49;100447.00;4973806;28;45541;-77
2023/03/24 11:26:05;;;;;;;;;2.67;2.67;;;;;22.90;63.23;100451.56;4965586;28;45319;-76
2023/03/24 11:28:37;;;;;;;;;4.00;2.67;;;;;22.12;64.48;100442.38;4980310;28;45407;-76
2023/03/24 11:31:17;;;;;;;;;3.67;2.00;;;;;21.46;66.39;100429.25;4965927;28;45474;-75
2023/03/24 11:33:55;;;;;;;;;4.33;0.33;;;;;22.32;65.47;100426.38;4973813;28;45414;-76